createdAt,value
2019-05-18T00:00:56.494Z,24.48
2019-05-18T00:03:31.273Z,24.48
2019-05-18T00:06:05.648Z,24.48
2019-05-18T00:08:40.162Z,24.39
2019-05-18T00:11:14.516Z,24.51
2019-05-18T00:13:48.918Z,24.52
2019-05-18T00:16:23.312Z,24.51
2019-05-18T00:18:57.724Z,24.56
2019-05-18T00:21:31.790Z,24.56
2019-05-18T00:24:06.165Z,24.52
2019-05-18T00:26:40.603Z,24.58
2019-05-18T00:29:15.043Z,24.55
2019-05-18T00:31:49.288Z,24.55
2019-05-18T00:34:23.813Z,24.56
2019-05-18T00:36:57.941Z,24.57
2019-05-18T00:39:32.444Z,24.54
2019-05-18T00:42:06.670Z,24.55
2019-05-18T00:44:40.944Z,24.66
2019-05-18T00:47:15.370Z,24.64
2019-05-18T00:49:49.442Z,24.62
2019-05-18T00:52:23.707Z,24.61
2019-05-18T00:54:57.797Z,24.56
2019-05-18T00:57:32.057Z,24.83
2019-05-18T01:00:08.134Z,24.83
2019-05-18T01:02:42.550Z,24.83
2019-05-18T01:05:16.462Z,24.71
2019-05-18T01:07:50.529Z,24.65
2019-05-18T01:10:24.778Z,24.65
2019-05-18T01:12:59.225Z,24.60
2019-05-18T01:15:33.514Z,24.58
2019-05-18T01:18:07.746Z,24.66
2019-05-18T01:20:41.804Z,24.64
2019-05-18T01:23:16.150Z,24.58
2019-05-18T01:25:50.161Z,24.59
2019-05-18T01:28:24.271Z,24.54
2019-05-18T01:30:57.983Z,24.51
2019-05-18T01:33:31.789Z,24.38
2019-05-18T01:36:06.674Z,24.48
2019-05-18T01:38:40.461Z,24.51
2019-05-18T01:41:14.458Z,24.47
2019-05-18T01:43:48.963Z,24.58
2019-05-18T01:46:23.030Z,24.58
2019-05-18T01:48:57.156Z,24.60
2019-05-18T01:51:31.252Z,24.60
2019-05-18T01:54:05.409Z,24.61
2019-05-18T01:56:39.458Z,24.58
2019-05-18T01:59:13.557Z,24.56
2019-05-18T02:01:47.891Z,24.55
2019-05-18T02:04:22.105Z,24.54
2019-05-18T02:06:56.276Z,24.42
2019-05-18T02:09:30.541Z,24.51
2019-05-18T02:12:04.707Z,24.51
2019-05-18T02:14:38.952Z,24.49
2019-05-18T02:17:12.845Z,24.43
2019-05-18T02:19:46.773Z,24.50
2019-05-18T02:22:20.705Z,24.51
2019-05-18T02:24:54.908Z,24.50
2019-05-18T02:27:29.016Z,24.54
2019-05-18T02:30:02.961Z,24.56
2019-05-18T02:32:37.738Z,24.53
2019-05-18T02:35:11.839Z,24.54
2019-05-18T02:37:46.009Z,24.54
2019-05-18T02:40:20.370Z,24.57
2019-05-18T02:42:54.981Z,24.55
2019-05-18T02:45:29.373Z,24.55
2019-05-18T02:48:03.454Z,24.55
2019-05-18T02:50:37.795Z,24.42
2019-05-18T02:53:12.174Z,24.49
2019-05-18T02:55:46.158Z,24.53
2019-05-18T02:58:20.506Z,24.52
2019-05-18T03:00:54.684Z,24.59
2019-05-18T03:03:29.174Z,24.69
2019-05-18T03:06:03.396Z,24.67
2019-05-18T03:08:37.546Z,24.63
2019-05-18T03:11:12.267Z,24.66
2019-05-18T03:13:46.638Z,24.62
2019-05-18T03:16:21.101Z,24.66
2019-05-18T03:19:07.368Z,24.74
2019-05-18T03:21:32.193Z,25.44
2019-05-18T03:24:06.731Z,25.72
2019-05-18T03:26:40.897Z,25.94
2019-05-18T03:29:15.844Z,26.11
2019-05-18T03:31:49.967Z,26.24
2019-05-18T03:34:24.164Z,26.36
2019-05-18T03:36:58.391Z,26.44
2019-05-18T03:39:32.600Z,26.51
2019-05-18T03:42:06.985Z,26.56
2019-05-18T03:44:41.143Z,26.62
2019-05-18T03:47:15.229Z,26.66
2019-05-18T03:49:50.473Z,26.71
2019-05-18T03:52:24.595Z,26.75
2019-05-18T03:54:58.706Z,26.80
2019-05-18T03:57:33.003Z,26.84
2019-05-18T04:00:07.816Z,26.95
2019-05-18T04:02:41.839Z,27.01
2019-05-18T04:05:16.191Z,27.12
2019-05-18T04:07:50.404Z,27.14
2019-05-18T04:10:30.533Z,27.13
2019-05-18T04:13:04.665Z,27.12
2019-05-18T04:15:38.873Z,27.14
2019-05-18T04:18:13.104Z,27.15
2019-05-18T04:20:47.032Z,27.19
2019-05-18T04:23:21.098Z,27.21
2019-05-18T04:25:56.073Z,27.24
2019-05-18T04:28:30.176Z,27.40
2019-05-18T04:31:04.518Z,27.51
2019-05-18T04:33:38.629Z,27.50
2019-05-18T04:36:12.951Z,27.54
2019-05-18T04:38:46.973Z,27.59
2019-05-18T04:41:21.413Z,27.56
2019-05-18T04:43:55.733Z,27.55
2019-05-18T04:46:29.630Z,27.57
2019-05-18T04:49:03.911Z,27.57
2019-05-18T04:51:38.255Z,27.59
2019-05-18T04:54:12.550Z,27.59
2019-05-18T04:56:47.491Z,27.60
2019-05-18T04:59:21.321Z,27.62
2019-05-18T05:01:55.647Z,27.61
2019-05-18T05:04:29.779Z,27.66
2019-05-18T05:07:04.024Z,27.67
2019-05-18T05:09:38.392Z,27.67
2019-05-18T05:12:13.233Z,27.68
2019-05-18T05:14:59.544Z,27.68
2019-05-18T05:17:33.791Z,27.69
2019-05-18T05:20:19.440Z,27.70
2019-05-18T05:22:44.223Z,27.72
2019-05-18T05:25:18.575Z,27.71
2019-05-18T05:27:52.549Z,27.77
2019-05-18T05:30:26.532Z,27.77
2019-05-18T05:33:00.465Z,27.76
2019-05-18T05:35:37.611Z,27.75
2019-05-18T05:38:11.159Z,27.77
2019-05-18T05:40:45.384Z,27.77
2019-05-18T05:43:19.423Z,27.76
2019-05-18T05:45:53.650Z,27.78
2019-05-18T05:48:27.694Z,27.79
2019-05-18T05:51:02.271Z,27.79
2019-05-18T05:53:36.405Z,27.81
2019-05-18T05:56:10.304Z,27.81
2019-05-18T05:58:44.646Z,27.81
2019-05-18T06:01:18.939Z,27.83
2019-05-18T06:03:52.896Z,27.82
2019-05-18T06:06:26.749Z,27.83
2019-05-18T06:09:00.801Z,27.83
2019-05-18T06:11:35.184Z,27.85
2019-05-18T06:14:09.379Z,27.85
2019-05-18T06:16:43.395Z,27.85
2019-05-18T06:19:17.267Z,27.87
2019-05-18T06:21:51.388Z,27.88
2019-05-18T06:24:25.518Z,27.87
2019-05-18T06:26:59.520Z,27.89
2019-05-18T06:29:33.513Z,27.90
2019-05-18T06:32:07.635Z,27.90
2019-05-18T06:34:41.663Z,27.92
2019-05-18T06:37:15.757Z,27.92
2019-05-18T06:39:50.285Z,27.93
2019-05-18T06:42:24.598Z,27.93
2019-05-18T06:44:58.743Z,27.96
2019-05-18T06:47:33.908Z,27.99
2019-05-18T06:50:11.359Z,27.98
2019-05-18T06:52:43.865Z,27.99
2019-05-18T06:55:18.066Z,28.00
2019-05-18T06:57:52.542Z,28.05
2019-05-18T07:00:26.794Z,28.10
2019-05-18T07:03:02.697Z,28.13
2019-05-18T07:05:36.511Z,28.14
2019-05-18T07:08:13.226Z,28.16
2019-05-18T07:10:47.475Z,28.18
2019-05-18T07:13:21.478Z,28.20
2019-05-18T07:15:55.665Z,28.22
2019-05-18T07:18:29.436Z,28.24
2019-05-18T07:21:03.454Z,28.26
2019-05-18T07:23:37.256Z,28.26
2019-05-18T07:26:11.297Z,28.31
2019-05-18T07:28:45.312Z,28.55
2019-05-18T07:31:19.401Z,28.58
2019-05-18T07:33:53.262Z,28.62
2019-05-18T07:36:27.150Z,28.62
2019-05-18T07:39:01.213Z,28.63
2019-05-18T07:41:46.151Z,28.61
2019-05-18T07:44:20.496Z,28.57
2019-05-18T07:46:54.769Z,28.57
2019-05-18T07:49:28.882Z,28.59
2019-05-18T07:52:02.902Z,28.56
2019-05-18T07:54:36.798Z,28.53
2019-05-18T07:57:13.970Z,28.52
2019-05-18T07:59:47.903Z,28.50
2019-05-18T08:02:22.112Z,28.50
2019-05-18T08:04:56.264Z,28.49
2019-05-18T08:07:30.272Z,28.47
2019-05-18T08:10:04.432Z,28.46
2019-05-18T08:12:38.225Z,28.47
2019-05-18T08:15:13.885Z,28.46
2019-05-18T08:17:47.663Z,28.46
2019-05-18T08:20:21.569Z,28.47
2019-05-18T08:22:55.896Z,28.48
2019-05-18T08:25:30.260Z,28.47
2019-05-18T08:28:08.149Z,28.46
2019-05-18T08:30:42.021Z,28.47
2019-05-18T08:33:16.065Z,28.48
2019-05-18T08:35:50.237Z,28.50
2019-05-18T08:38:24.188Z,28.50
2019-05-18T08:40:58.288Z,28.50
2019-05-18T08:43:32.332Z,28.52
2019-05-18T08:46:06.340Z,28.52
2019-05-18T08:48:40.447Z,28.54
2019-05-18T08:51:14.369Z,28.54
2019-05-18T08:53:48.916Z,28.55
2019-05-18T08:56:23.923Z,28.54
2019-05-18T08:58:57.969Z,28.61
2019-05-18T09:01:31.744Z,28.61
2019-05-18T09:04:05.807Z,28.60
2019-05-18T09:06:39.793Z,28.60
2019-05-18T09:09:13.830Z,28.60
2019-05-18T09:11:47.793Z,28.60
2019-05-18T09:14:21.605Z,28.62
2019-05-18T09:16:55.628Z,28.62
2019-05-18T09:19:29.621Z,28.56
2019-05-18T09:22:03.434Z,28.56
2019-05-18T09:24:37.253Z,28.63
2019-05-18T09:27:13.734Z,28.65
2019-05-18T09:29:47.990Z,28.65
2019-05-18T09:32:22.148Z,28.67
2019-05-18T09:34:57.325Z,28.67
2019-05-18T09:37:31.427Z,28.69
2019-05-18T09:40:05.770Z,28.68
2019-05-18T09:42:39.808Z,28.69
2019-05-18T09:45:15.614Z,28.72
2019-05-18T09:47:49.445Z,28.72
2019-05-18T09:50:23.553Z,28.73
2019-05-18T09:52:57.880Z,28.71
2019-05-18T09:55:31.675Z,28.75
2019-05-18T09:58:06.019Z,28.77
2019-05-18T10:00:40.592Z,28.69
2019-05-18T10:03:15.391Z,28.79
2019-05-18T10:05:49.455Z,28.79
2019-05-18T10:08:23.560Z,28.79
2019-05-18T10:10:57.776Z,28.80
2019-05-18T10:13:33.631Z,28.81
2019-05-18T10:16:07.665Z,28.96
2019-05-18T10:18:42.033Z,28.94
2019-05-18T10:21:16.111Z,29.13
2019-05-18T10:23:50.239Z,29.11
2019-05-18T10:26:24.331Z,29.11
2019-05-18T10:28:58.340Z,28.19
2019-05-18T10:31:32.642Z,28.19
2019-05-18T10:34:06.955Z,27.24
2019-05-18T10:36:40.851Z,26.63
2019-05-18T10:39:15.447Z,26.43
2019-05-18T10:41:49.301Z,26.20
2019-05-18T10:44:23.422Z,25.89
2019-05-18T10:46:57.475Z,25.81
2019-05-18T10:49:31.384Z,25.77
2019-05-18T10:52:05.553Z,25.73
2019-05-18T10:54:39.880Z,25.67
2019-05-18T10:57:14.185Z,25.52
2019-05-18T10:59:48.940Z,25.43
2019-05-18T11:02:22.986Z,25.40
2019-05-18T11:04:57.204Z,25.09
2019-05-18T11:07:31.388Z,25.11
2019-05-18T11:10:05.732Z,25.05
2019-05-18T11:12:40.083Z,25.00
2019-05-18T11:15:15.880Z,24.86
2019-05-18T11:17:50.297Z,24.98
2019-05-18T11:20:24.895Z,24.86
2019-05-18T11:22:58.857Z,25.06
2019-05-18T11:25:33.333Z,24.89
2019-05-18T11:28:07.347Z,24.92
2019-05-18T11:30:41.403Z,24.96
2019-05-18T11:33:15.368Z,24.97
2019-05-18T11:35:49.525Z,25.34
2019-05-18T11:38:23.688Z,25.31
2019-05-18T11:40:57.950Z,25.38
2019-05-18T11:43:32.340Z,25.35
2019-05-18T11:46:06.607Z,25.33
2019-05-18T11:48:40.588Z,25.28
2019-05-18T11:51:14.651Z,25.29
2019-05-18T11:53:57.969Z,25.29
2019-05-18T11:56:24.310Z,25.22
2019-05-18T11:58:58.153Z,25.26
2019-05-18T12:01:32.379Z,25.28
2019-05-18T12:04:06.531Z,25.27
2019-05-18T12:06:40.645Z,25.30
2019-05-18T12:09:14.811Z,25.14
2019-05-18T12:11:48.696Z,25.15
2019-05-18T12:14:22.813Z,25.12
2019-05-18T12:16:57.073Z,25.16
2019-05-18T12:19:30.999Z,25.16
2019-05-18T12:22:04.902Z,25.11
2019-05-18T12:24:38.881Z,25.03
2019-05-18T12:27:13.010Z,25.06
2019-05-18T12:29:46.919Z,25.04
2019-05-18T12:32:20.825Z,24.91
2019-05-18T12:34:55.065Z,25.00
2019-05-18T12:37:28.959Z,24.95
2019-05-18T12:40:03.143Z,24.98
2019-05-18T12:42:37.338Z,24.89
2019-05-18T12:45:13.046Z,25.43
2019-05-18T12:47:48.126Z,26.35
2019-05-18T12:50:22.894Z,26.87
2019-05-18T12:52:56.895Z,27.21
2019-05-18T12:55:31.410Z,27.52
2019-05-18T12:58:05.674Z,27.72
2019-05-18T13:00:40.035Z,27.68
2019-05-18T13:03:14.046Z,27.62
2019-05-18T13:05:48.354Z,27.59
2019-05-18T13:08:23.207Z,27.59
2019-05-18T13:10:57.572Z,27.61
2019-05-18T13:13:31.635Z,27.62
2019-05-18T13:16:05.815Z,27.64
2019-05-18T13:18:39.868Z,27.65
2019-05-18T13:21:14.234Z,27.67
2019-05-18T13:23:48.072Z,27.69
2019-05-18T13:26:22.300Z,27.73
2019-05-18T13:28:56.316Z,27.77
2019-05-18T13:31:30.224Z,27.80
2019-05-18T13:34:04.385Z,27.83
2019-05-18T13:36:38.353Z,27.85
2019-05-18T13:39:12.710Z,27.89
2019-05-18T13:41:46.747Z,27.92
2019-05-18T13:44:21.034Z,27.95
2019-05-18T13:46:54.935Z,27.98
2019-05-18T13:49:29.294Z,28.01
2019-05-18T13:52:03.387Z,28.03
2019-05-18T13:54:37.681Z,28.07
2019-05-18T13:57:11.738Z,28.09
2019-05-18T13:59:45.761Z,28.12
2019-05-18T14:02:20.324Z,28.15
2019-05-18T14:04:54.368Z,28.17
2019-05-18T14:07:28.951Z,28.20
2019-05-18T14:10:03.121Z,28.23
2019-05-18T14:12:37.829Z,28.26
2019-05-18T14:15:13.490Z,28.30
2019-05-18T14:17:47.866Z,28.32
2019-05-18T14:20:22.563Z,28.34
2019-05-18T14:22:56.597Z,28.36
2019-05-18T14:25:31.665Z,28.38
2019-05-18T14:28:06.441Z,28.42
2019-05-18T14:30:40.578Z,28.44
2019-05-18T14:33:14.835Z,28.47
2019-05-18T14:35:48.949Z,28.90
2019-05-18T14:38:23.114Z,29.03
2019-05-18T14:40:56.961Z,29.12
2019-05-18T14:43:32.165Z,29.17
2019-05-18T14:46:06.447Z,29.20
2019-05-18T14:48:40.764Z,29.21
2019-05-18T14:51:14.873Z,29.31
2019-05-18T14:53:48.640Z,29.31
2019-05-18T14:56:22.824Z,29.34
2019-05-18T14:58:57.126Z,29.39
2019-05-18T15:01:31.072Z,29.44
2019-05-18T15:04:04.877Z,29.49
2019-05-18T15:06:39.419Z,29.56
2019-05-18T15:09:13.619Z,29.56
2019-05-18T15:11:47.958Z,29.59
2019-05-18T15:14:22.016Z,29.62
2019-05-18T15:16:56.245Z,29.65
2019-05-18T15:19:30.426Z,29.67
2019-05-18T15:22:04.669Z,29.71
2019-05-18T15:24:38.804Z,29.74
2019-05-18T15:27:12.700Z,29.79
2019-05-18T15:29:47.868Z,29.83
2019-05-18T15:32:21.919Z,29.84
2019-05-18T15:34:56.004Z,29.85
2019-05-18T15:37:30.132Z,29.87
2019-05-18T15:40:04.270Z,29.87
2019-05-18T15:42:38.348Z,29.88
2019-05-18T15:45:12.697Z,29.89
2019-05-18T15:47:46.934Z,29.90
2019-05-18T15:50:21.672Z,29.92
2019-05-18T15:52:55.526Z,29.94
2019-05-18T15:55:29.588Z,29.93
2019-05-18T15:58:03.546Z,29.96
2019-05-18T16:00:37.791Z,29.96
2019-05-18T16:03:14.838Z,29.96
2019-05-18T16:05:48.974Z,29.97
2019-05-18T16:08:23.267Z,29.98
2019-05-18T16:10:57.332Z,29.98
2019-05-18T16:13:31.398Z,29.99
2019-05-18T16:16:05.635Z,30.00
2019-05-18T16:18:39.676Z,30.00
2019-05-18T16:21:13.861Z,30.01
2019-05-18T16:23:48.034Z,30.04
2019-05-18T16:26:22.185Z,30.05
2019-05-18T16:28:56.273Z,30.05
2019-05-18T16:31:30.418Z,30.07
2019-05-18T16:34:04.833Z,30.08
2019-05-18T16:36:39.179Z,30.11
2019-05-18T16:39:13.133Z,30.08
2019-05-18T16:41:47.417Z,30.11
2019-05-18T16:44:21.578Z,30.12
2019-05-18T16:46:55.608Z,30.14
2019-05-18T16:49:29.948Z,30.14
2019-05-18T16:52:04.288Z,30.14
2019-05-18T16:54:38.404Z,30.15
2019-05-18T16:57:12.452Z,30.15
2019-05-18T16:59:46.416Z,30.17
2019-05-18T17:02:31.299Z,30.17
2019-05-18T17:04:57.485Z,30.18
2019-05-18T17:07:31.762Z,30.18
2019-05-18T17:10:06.969Z,30.24
2019-05-18T17:12:41.199Z,30.29
2019-05-18T17:15:16.456Z,30.32
2019-05-18T17:17:50.405Z,30.34
2019-05-18T17:20:24.798Z,30.37
2019-05-18T17:22:59.561Z,30.36
2019-05-18T17:25:33.574Z,29.96
2019-05-18T17:28:07.898Z,29.00
2019-05-18T17:30:42.918Z,29.00
2019-05-18T17:33:17.482Z,28.59
2019-05-18T17:35:59.924Z,28.35
2019-05-18T17:38:27.853Z,28.20
2019-05-18T17:41:01.831Z,28.08
2019-05-18T17:43:35.994Z,28.08
2019-05-18T17:46:09.894Z,28.20
2019-05-18T17:48:44.189Z,28.43
2019-05-18T17:51:18.438Z,28.26
2019-05-18T17:53:53.105Z,27.95
2019-05-18T17:56:27.170Z,27.71
2019-05-18T17:59:01.166Z,27.54
2019-05-18T18:01:35.228Z,27.47
2019-05-18T18:04:09.204Z,27.29
2019-05-18T18:06:43.190Z,27.21
2019-05-18T18:09:17.013Z,27.06
2019-05-18T18:11:50.997Z,26.78
2019-05-18T18:14:24.978Z,26.06
2019-05-18T18:16:59.025Z,25.46
2019-05-18T18:19:33.115Z,24.93
2019-05-18T18:22:07.394Z,24.49
2019-05-18T18:24:41.606Z,24.15
2019-05-18T18:27:24.556Z,23.93
2019-05-18T18:32:23.696Z,23.60
2019-05-18T18:34:57.765Z,23.45
2019-05-18T18:37:31.932Z,23.38
2019-05-18T18:40:06.262Z,23.28
2019-05-18T18:42:40.363Z,23.28
2019-05-18T18:45:15.793Z,23.15
2019-05-18T18:47:49.632Z,23.11
2019-05-18T18:50:23.743Z,23.12
2019-05-18T18:52:57.975Z,23.08
2019-05-18T18:55:32.424Z,23.03
2019-05-18T18:58:06.649Z,22.99
2019-05-18T19:00:40.825Z,23.06
2019-05-18T19:03:15.260Z,23.04
2019-05-18T19:05:49.324Z,23.06
2019-05-18T19:08:23.455Z,23.10
2019-05-18T19:10:57.463Z,23.00
2019-05-18T19:13:31.799Z,22.96
2019-05-18T19:16:05.765Z,22.94
2019-05-18T19:18:39.905Z,22.89
2019-05-18T19:21:13.984Z,22.80
2019-05-18T19:23:48.051Z,22.80
2019-05-18T19:26:22.199Z,22.77
2019-05-18T19:28:56.343Z,22.80
2019-05-18T19:31:30.403Z,23.00
2019-05-18T19:34:04.843Z,23.26
2019-05-18T19:36:38.812Z,23.48
2019-05-18T19:39:13.131Z,23.35
2019-05-18T19:41:47.227Z,23.21
2019-05-18T19:44:23.923Z,23.13
2019-05-18T19:46:57.069Z,23.05
2019-05-18T19:49:31.264Z,23.01
2019-05-18T19:52:05.055Z,23.06
2019-05-18T19:54:39.102Z,23.06
2019-05-18T19:57:13.998Z,7.96
2019-05-18T19:59:48.187Z,23.06
2019-05-18T20:02:22.861Z,23.04
2019-05-18T20:05:07.140Z,23.03
2019-05-18T20:07:33.049Z,23.02
2019-05-18T20:10:07.700Z,23.00
2019-05-18T20:12:42.238Z,23.02
2019-05-18T20:15:16.577Z,23.09
2019-05-18T20:17:50.750Z,23.48
2019-05-18T20:20:24.893Z,23.72
2019-05-18T20:22:58.971Z,23.23
2019-05-18T20:25:32.939Z,22.94
2019-05-18T20:28:06.978Z,22.78
2019-05-18T20:30:41.016Z,22.70
2019-05-18T20:33:15.023Z,22.62
2019-05-18T20:35:49.350Z,22.63
2019-05-18T20:38:23.418Z,22.61
2019-05-18T20:41:57.236Z,22.76
2019-05-18T20:44:31.179Z,22.76
2019-05-18T20:47:05.228Z,23.16
2019-05-18T20:49:39.317Z,23.51
2019-05-18T20:52:13.489Z,23.98
2019-05-18T20:54:47.458Z,23.69
2019-05-18T20:57:21.490Z,23.39
2019-05-18T20:59:55.683Z,23.37
2019-05-18T21:02:29.623Z,23.39
2019-05-18T21:05:03.757Z,23.41
2019-05-18T21:07:37.971Z,23.43
2019-05-18T21:10:12.405Z,23.46
2019-05-18T21:12:46.716Z,23.56
2019-05-18T21:15:21.216Z,23.80
2019-05-18T21:17:55.510Z,23.46
2019-05-18T21:20:29.700Z,23.36
2019-05-18T21:23:04.098Z,23.40
2019-05-18T21:25:38.355Z,23.38
2019-05-18T21:28:12.423Z,23.35
2019-05-18T21:30:47.736Z,23.32
2019-05-18T21:33:21.716Z,23.30
2019-05-18T21:35:55.591Z,23.49
2019-05-18T21:38:29.948Z,23.57
2019-05-18T21:41:03.795Z,23.22
2019-05-18T21:43:38.897Z,23.12
2019-05-18T21:46:13.073Z,23.15
2019-05-18T21:48:47.392Z,23.16
2019-05-18T21:51:21.544Z,23.17
2019-05-18T21:53:55.596Z,23.16
2019-05-18T21:56:29.659Z,23.16
2019-05-18T21:59:11.664Z,23.42
2019-05-18T22:01:39.455Z,23.30
2019-05-18T22:04:13.876Z,23.01
2019-05-18T22:06:47.964Z,23.00
2019-05-18T22:09:22.049Z,23.04
2019-05-18T22:11:56.199Z,23.04
2019-05-18T22:14:30.271Z,23.04
2019-05-18T22:17:04.467Z,23.36
2019-05-18T22:19:38.453Z,24.00
2019-05-18T22:22:12.624Z,24.75
2019-05-18T22:24:46.677Z,24.62
2019-05-18T22:27:20.661Z,24.38
2019-05-18T22:29:54.476Z,24.28
2019-05-18T22:32:28.652Z,24.25
2019-05-18T22:35:02.524Z,24.21
2019-05-18T22:37:36.661Z,24.20
2019-05-18T22:40:10.824Z,24.24
2019-05-18T22:42:44.752Z,24.24
2019-05-18T22:45:18.907Z,24.25
2019-05-18T22:47:53.008Z,24.26
2019-05-18T22:50:27.551Z,24.25
2019-05-18T22:53:01.672Z,24.26
2019-05-18T22:55:35.709Z,24.27
2019-05-18T22:58:09.889Z,24.30
2019-05-18T23:00:43.852Z,24.28
2019-05-18T23:03:17.899Z,24.29
2019-05-18T23:05:52.166Z,24.31
2019-05-18T23:08:26.269Z,24.32
2019-05-18T23:11:00.080Z,24.33
2019-05-18T23:13:34.343Z,24.29
2019-05-18T23:16:08.307Z,24.29
2019-05-18T23:18:55.931Z,24.30
2019-05-18T23:21:18.417Z,24.29
2019-05-18T23:23:52.658Z,24.29
2019-05-18T23:26:26.900Z,24.27
2019-05-18T23:29:01.025Z,24.31
2019-05-18T23:31:35.269Z,24.33
2019-05-18T23:34:09.531Z,24.33
2019-05-18T23:36:43.804Z,24.34
2019-05-18T23:39:18.077Z,24.34
2019-05-18T23:41:51.886Z,24.36
2019-05-18T23:44:26.566Z,24.34
2019-05-18T23:47:00.800Z,24.39
2019-05-18T23:49:35.009Z,24.37
2019-05-18T23:52:09.144Z,24.38
2019-05-18T23:54:43.441Z,24.37
2019-05-18T23:57:17.408Z,24.40
2019-05-18T23:59:51.492Z,24.40
